createdAt,value
2018-05-19T00:01:18.022Z,7.72
2018-05-19T00:03:44.061Z,8.05
2018-05-19T00:06:10.192Z,7.45
2018-05-19T00:08:36.255Z,7.57
2018-05-19T00:11:02.318Z,7.13
2018-05-19T00:13:28.365Z,8.00
2018-05-19T00:15:54.379Z,8.90
2018-05-19T00:18:20.483Z,7.62
2018-05-19T00:20:46.515Z,7.10
2018-05-19T00:23:13.356Z,7.00
2018-05-19T00:25:40.273Z,8.70
2018-05-19T00:28:06.304Z,8.30
2018-05-19T00:30:32.365Z,19.85
2018-05-19T00:32:58.409Z,8.75
2018-05-19T00:35:24.458Z,8.00
2018-05-19T00:37:51.250Z,7.90
2018-05-19T00:40:17.272Z,7.60
2018-05-19T00:42:43.349Z,7.03
2018-05-19T00:45:09.402Z,7.32
2018-05-19T00:47:35.452Z,7.30
2018-05-19T00:50:01.710Z,7.50
2018-05-19T00:52:28.501Z,7.70
2018-05-19T00:55:02.632Z,6.90
2018-05-19T00:57:28.691Z,7.05
2018-05-19T00:59:54.738Z,6.97
2018-05-19T01:02:20.845Z,6.60
2018-05-19T01:04:47.851Z,8.05
2018-05-19T01:07:14.857Z,7.20
2018-05-19T01:09:40.946Z,7.90
2018-05-19T01:12:07.015Z,7.62
2018-05-19T01:14:33.074Z,7.20
2018-05-19T01:16:59.231Z,8.20
2018-05-19T01:19:25.324Z,7.40
2018-05-19T01:21:52.254Z,7.43
2018-05-19T01:24:18.288Z,8.15
2018-05-19T01:26:44.366Z,8.13
2018-05-19T01:29:10.481Z,8.00
2018-05-19T01:31:37.266Z,7.90
2018-05-19T01:34:03.291Z,7.55
2018-05-19T01:36:29.388Z,7.15
2018-05-19T01:38:55.402Z,7.40
2018-05-19T01:41:21.417Z,7.57
2018-05-19T01:43:47.545Z,7.60
2018-05-19T01:46:13.495Z,6.93
2018-05-19T01:48:39.529Z,6.80
2018-05-19T01:51:05.580Z,7.20
2018-05-19T01:53:31.656Z,7.80
2018-05-19T01:55:57.698Z,7.50
2018-05-19T01:58:23.751Z,6.43
2018-05-19T02:00:49.819Z,7.53
2018-05-19T02:03:15.876Z,7.12
2018-05-19T02:05:41.950Z,7.30
2018-05-19T02:08:08.740Z,6.87
2018-05-19T02:10:34.773Z,7.03
2018-05-19T02:13:00.850Z,7.47
2018-05-19T02:15:26.977Z,7.40
2018-05-19T02:17:53.303Z,7.50
2018-05-19T02:20:19.330Z,7.45
2018-05-19T02:22:45.385Z,7.00
2018-05-19T02:25:11.696Z,7.93
2018-05-19T02:27:38.469Z,7.65
2018-05-19T02:30:04.518Z,7.53
2018-05-19T02:32:30.572Z,7.12
2018-05-19T02:34:56.689Z,7.10
2018-05-19T02:37:22.723Z,7.85
2018-05-19T02:39:48.759Z,7.93
2018-05-19T02:42:14.823Z,7.20
2018-05-19T02:44:40.890Z,7.47
2018-05-19T02:47:06.896Z,8.25
2018-05-19T02:49:32.951Z,7.07
2018-05-19T02:51:59.257Z,7.47
2018-05-19T02:54:25.305Z,7.60
2018-05-19T02:56:51.379Z,7.90
2018-05-19T02:59:17.405Z,8.30
2018-05-19T03:01:43.590Z,7.90
2018-05-19T03:04:09.643Z,8.27
2018-05-19T03:06:35.665Z,7.00
2018-05-19T03:09:01.703Z,8.45
2018-05-19T03:11:27.785Z,8.27
2018-05-19T03:13:53.838Z,8.00
2018-05-19T03:16:19.869Z,7.97
2018-05-19T03:18:45.909Z,8.23
2018-05-19T03:21:11.937Z,8.68
2018-05-19T03:23:37.992Z,9.00
2018-05-19T03:26:04.806Z,8.70
2018-05-19T03:28:30.820Z,8.10
2018-05-19T03:30:56.877Z,8.90
2018-05-19T03:33:22.929Z,8.30
2018-05-19T03:35:48.976Z,8.20
2018-05-19T03:38:15.018Z,8.00
2018-05-19T03:40:41.048Z,8.13
2018-05-19T03:43:07.097Z,8.40
2018-05-19T03:45:33.120Z,9.10
2018-05-19T03:47:59.154Z,8.85
2018-05-19T03:50:25.184Z,7.70
2018-05-19T03:52:51.237Z,8.43
2018-05-19T03:55:27.327Z,7.70
2018-05-19T03:58:05.967Z,7.40
2018-05-19T04:00:45.095Z,7.45
2018-05-19T04:03:11.174Z,7.57
2018-05-19T04:05:37.274Z,8.30
2018-05-19T04:08:03.322Z,7.45
2018-05-19T04:10:30.154Z,8.20
2018-05-19T04:12:56.227Z,7.90
2018-05-19T04:15:22.318Z,7.87
2018-05-19T04:17:48.409Z,8.10
2018-05-19T04:20:14.594Z,8.00
2018-05-19T04:22:40.645Z,9.45
2018-05-19T04:25:06.726Z,8.40
2018-05-19T04:27:32.765Z,8.77
2018-05-19T04:29:59.529Z,8.10
2018-05-19T04:32:25.573Z,8.05
2018-05-19T04:34:51.623Z,7.80
2018-05-19T04:37:17.695Z,7.72
2018-05-19T04:39:43.742Z,7.80
2018-05-19T04:42:10.831Z,8.05
2018-05-19T04:44:36.887Z,8.35
2018-05-19T04:47:02.966Z,7.82
2018-05-19T04:49:29.056Z,8.47
2018-05-19T04:51:55.275Z,8.02
2018-05-19T04:54:21.954Z,7.70
2018-05-19T04:56:48.093Z,8.57
2018-05-19T04:59:14.050Z,9.63
2018-05-19T05:01:40.130Z,8.90
2018-05-19T05:04:06.289Z,9.17
2018-05-19T05:06:32.226Z,8.50
2018-05-19T05:08:58.277Z,8.93
2018-05-19T05:11:24.371Z,7.75
2018-05-19T05:13:50.393Z,8.48
2018-05-19T05:16:16.489Z,8.80
2018-05-19T05:18:42.564Z,8.77
2018-05-19T05:21:08.575Z,8.60
2018-05-19T05:23:34.631Z,8.82
2018-05-19T05:26:00.674Z,9.15
2018-05-19T05:28:26.813Z,8.70
2018-05-19T05:30:52.872Z,7.40
2018-05-19T05:33:18.898Z,8.80
2018-05-19T05:35:45.004Z,7.50
2018-05-19T05:38:11.077Z,8.63
2018-05-19T05:40:37.153Z,8.02
2018-05-19T05:43:03.208Z,8.57
2018-05-19T05:45:29.310Z,7.75
2018-05-19T05:47:56.155Z,7.70
2018-05-19T05:50:22.209Z,8.15
2018-05-19T05:52:49.009Z,8.70
2018-05-19T05:55:15.046Z,8.45
2018-05-19T05:57:41.176Z,7.82
2018-05-19T06:00:07.245Z,9.00
2018-05-19T06:02:33.284Z,7.90
2018-05-19T06:04:59.335Z,8.80
2018-05-19T06:07:25.457Z,8.75
2018-05-19T06:09:51.534Z,9.10
2018-05-19T06:12:18.403Z,9.00
2018-05-19T06:14:44.361Z,9.70
2018-05-19T06:17:10.421Z,8.65
2018-05-19T06:19:36.442Z,9.18
2018-05-19T06:22:02.519Z,9.15
2018-05-19T06:24:29.303Z,9.40
2018-05-19T06:26:55.390Z,8.63
2018-05-19T06:29:21.631Z,8.60
2018-05-19T06:31:47.749Z,9.63
2018-05-19T06:34:13.814Z,8.55
2018-05-19T06:36:39.903Z,8.23
2018-05-19T06:39:05.917Z,9.10
2018-05-19T06:41:32.739Z,9.80
2018-05-19T06:43:58.762Z,9.20
2018-05-19T06:46:25.531Z,9.50
2018-05-19T06:48:51.611Z,9.60
2018-05-19T06:51:17.651Z,10.43
2018-05-19T06:53:43.698Z,9.93
2018-05-19T06:56:09.850Z,10.13
2018-05-19T06:58:35.922Z,11.40
2018-05-19T07:01:01.961Z,9.67
2018-05-19T07:03:28.016Z,9.80
2018-05-19T07:05:55.325Z,10.30
2018-05-19T07:08:21.379Z,10.07
2018-05-19T07:10:47.455Z,9.37
2018-05-19T07:13:13.534Z,11.10
2018-05-19T07:15:39.579Z,10.00
2018-05-19T07:18:05.618Z,9.10
2018-05-19T07:20:31.649Z,9.40
2018-05-19T07:22:57.720Z,10.50
2018-05-19T07:25:23.770Z,11.20
2018-05-19T07:27:49.822Z,10.70
2018-05-19T07:30:16.610Z,11.00
2018-05-19T07:32:42.666Z,10.40
2018-05-19T07:35:08.725Z,11.55
2018-05-19T07:37:34.765Z,11.87
2018-05-19T07:40:00.909Z,11.80
2018-05-19T07:42:26.999Z,10.80
2018-05-19T07:45:00.088Z,11.15
2018-05-19T07:47:26.319Z,10.55
2018-05-19T07:49:53.155Z,10.60
2018-05-19T07:52:19.199Z,10.53
2018-05-19T07:54:45.709Z,11.52
2018-05-19T07:57:12.522Z,12.30
2018-05-19T07:59:38.576Z,12.00
2018-05-19T08:02:04.646Z,12.35
2018-05-19T08:04:30.682Z,11.30
2018-05-19T08:06:56.759Z,11.50
2018-05-19T08:09:22.795Z,10.90
2018-05-19T08:11:49.580Z,12.55
2018-05-19T08:14:15.637Z,12.40
2018-05-19T08:16:41.734Z,11.55
2018-05-19T08:19:07.804Z,12.90
2018-05-19T08:21:33.848Z,12.93
2018-05-19T08:23:59.890Z,11.63
2018-05-19T08:26:26.430Z,12.73
2018-05-19T08:28:52.515Z,12.10
2018-05-19T08:31:18.569Z,11.32
2018-05-19T08:33:44.706Z,12.30
2018-05-19T08:36:10.823Z,12.20
2018-05-19T08:38:36.869Z,12.20
2018-05-19T08:41:03.736Z,11.10
2018-05-19T08:43:29.746Z,11.07
2018-05-19T08:45:55.839Z,12.10
2018-05-19T08:48:21.915Z,11.32
2018-05-19T08:50:48.040Z,11.33
2018-05-19T08:53:14.196Z,10.98
2018-05-19T08:55:40.387Z,11.65
2018-05-19T08:58:06.514Z,11.10
2018-05-19T09:00:32.769Z,11.60
2018-05-19T09:02:58.802Z,11.27
2018-05-19T09:05:24.901Z,12.45
2018-05-19T09:07:51.084Z,12.10
2018-05-19T09:10:17.143Z,12.57
2018-05-19T09:12:43.287Z,11.93
2018-05-19T09:15:09.282Z,11.50
2018-05-19T09:17:35.336Z,12.45
2018-05-19T09:20:01.382Z,13.20
2018-05-19T09:22:27.449Z,11.32
2018-05-19T09:24:53.503Z,12.70
2018-05-19T09:27:19.603Z,13.20
2018-05-19T09:29:45.668Z,13.70
2018-05-19T09:32:11.751Z,12.75
2018-05-19T09:34:37.846Z,12.23
2018-05-19T09:37:03.932Z,12.30
2018-05-19T09:39:29.981Z,13.90
2018-05-19T09:41:56.129Z,13.05
2018-05-19T09:44:22.361Z,13.10
2018-05-19T09:46:48.436Z,12.30
2018-05-19T09:49:14.494Z,11.90
2018-05-19T09:51:41.400Z,12.98
2018-05-19T09:54:07.485Z,13.20
2018-05-19T09:56:33.593Z,12.93
2018-05-19T09:58:59.660Z,12.20
2018-05-19T10:01:25.730Z,12.53
2018-05-19T10:03:51.787Z,12.63
2018-05-19T10:06:17.804Z,13.40
2018-05-19T10:08:43.989Z,13.20
2018-05-19T10:11:10.164Z,11.43
2018-05-19T10:13:36.945Z,10.77
2018-05-19T10:18:29.894Z,13.03
2018-05-19T10:20:55.951Z,11.83
2018-05-19T10:23:22.746Z,12.30
2018-05-19T10:25:48.832Z,12.37
2018-05-19T10:28:15.645Z,12.80
2018-05-19T10:30:41.735Z,12.60
2018-05-19T10:33:08.557Z,13.02
2018-05-19T10:35:34.634Z,13.83
2018-05-19T10:38:00.693Z,13.60
2018-05-19T10:40:27.140Z,13.75
2018-05-19T10:42:53.223Z,13.70
2018-05-19T10:45:19.296Z,13.50
2018-05-19T10:47:45.427Z,14.85
2018-05-19T10:50:12.259Z,14.03
2018-05-19T10:52:38.342Z,13.40
2018-05-19T10:55:04.406Z,13.35
2018-05-19T10:57:30.434Z,12.70
2018-05-19T10:59:56.489Z,13.85
2018-05-19T11:02:22.566Z,13.52
2018-05-19T11:04:49.375Z,14.65
2018-05-19T11:07:15.419Z,12.00
2018-05-19T11:09:41.558Z,11.53
2018-05-19T11:12:07.661Z,12.57
2018-05-19T11:14:33.699Z,12.80
2018-05-19T11:16:59.872Z,11.20
2018-05-19T11:19:25.956Z,12.10
2018-05-19T11:21:52.774Z,10.37
2018-05-19T11:24:18.843Z,10.73
2018-05-19T11:26:45.657Z,10.60
2018-05-19T11:29:11.771Z,10.87
2018-05-19T11:31:37.861Z,12.00
2018-05-19T11:34:04.242Z,11.30
2018-05-19T11:36:30.294Z,10.63
2018-05-19T11:38:56.340Z,11.00
2018-05-19T11:41:22.407Z,10.03
2018-05-19T11:43:48.431Z,10.50
2018-05-19T11:46:14.480Z,9.73
2018-05-19T11:48:40.606Z,10.50
2018-05-19T11:51:06.641Z,10.33
2018-05-19T11:53:32.672Z,9.47
2018-05-19T11:55:59.096Z,9.70
2018-05-19T11:58:25.218Z,8.73
2018-05-19T12:00:52.047Z,9.57
2018-05-19T12:03:18.107Z,9.13
2018-05-19T12:05:44.979Z,9.10
2018-05-19T12:47:09.249Z,7.40
2018-05-19T12:49:35.374Z,7.90
2018-05-19T12:52:02.175Z,7.77
2018-05-19T12:54:28.237Z,7.73
2018-05-19T12:56:54.267Z,8.40
2018-05-19T12:59:20.314Z,8.47
2018-05-19T13:01:46.463Z,8.57
2018-05-19T13:05:18.385Z,8.70
2018-05-19T13:07:44.461Z,9.05
2018-05-19T13:10:10.634Z,9.00
2018-05-19T13:12:37.403Z,8.40
2018-05-19T13:15:03.472Z,9.00
2018-05-19T13:17:29.545Z,9.30
2018-05-19T13:19:55.617Z,8.20
2018-05-19T13:22:21.662Z,9.15
2018-05-19T13:24:47.754Z,8.53
2018-05-19T13:27:13.874Z,8.90
2018-05-19T13:29:39.970Z,9.30
2018-05-19T13:32:06.285Z,8.68
2018-05-19T13:34:32.329Z,8.50
2018-05-19T13:36:58.390Z,8.40
2018-05-19T13:39:24.456Z,8.77
2018-05-19T13:41:50.502Z,8.90
2018-05-19T13:44:16.595Z,8.95
2018-05-19T13:46:42.706Z,9.77
2018-05-19T13:49:08.717Z,9.43
2018-05-19T13:51:34.779Z,8.32
2018-05-19T13:54:00.821Z,8.98
2018-05-19T13:56:26.924Z,9.50
2018-05-19T13:58:53.002Z,9.03
2018-05-19T14:01:19.056Z,8.88
2018-05-19T14:03:46.122Z,7.83
2018-05-19T14:06:13.009Z,8.27
2018-05-19T14:08:39.057Z,7.80
2018-05-19T14:15:56.996Z,7.70
2018-05-19T14:18:23.806Z,8.30
2018-05-19T14:20:49.896Z,8.40
2018-05-19T14:23:15.928Z,8.40
2018-05-19T14:25:42.058Z,8.00
2018-05-19T14:28:08.169Z,8.70
2018-05-19T14:30:34.207Z,6.87
2018-05-19T14:33:00.239Z,7.10
2018-05-19T14:37:53.087Z,7.40
2018-05-19T14:40:19.905Z,6.67
2018-05-19T14:42:45.954Z,6.33
2018-05-19T14:45:12.385Z,6.93
2018-05-19T14:47:38.429Z,6.50
2018-05-19T14:50:04.529Z,6.93
2018-05-19T14:52:30.655Z,7.57
2018-05-19T14:54:56.700Z,7.93
2018-05-19T15:04:42.226Z,8.17
2018-05-19T15:07:08.304Z,7.30
2018-05-19T15:09:34.375Z,8.00
2018-05-19T15:12:00.456Z,7.80
2018-05-19T15:14:26.589Z,7.70
2018-05-19T15:16:52.662Z,7.53
2018-05-19T15:19:18.769Z,6.90
2018-05-19T15:21:44.826Z,7.70
2018-05-19T15:24:10.993Z,7.80
2018-05-19T15:26:44.275Z,8.03
2018-05-19T15:29:11.264Z,7.40
2018-05-19T15:31:37.365Z,7.07
2018-05-19T15:36:30.909Z,7.28
2018-05-19T15:38:56.968Z,6.20
2018-05-19T15:41:23.025Z,6.00
2018-05-19T15:43:49.247Z,6.22
2018-05-19T15:46:15.389Z,6.30
2018-05-19T15:48:42.086Z,5.67
2018-05-19T15:51:08.909Z,6.00
2018-05-19T15:56:01.645Z,6.30
2018-05-19T15:58:27.694Z,5.50
2018-05-19T16:00:53.742Z,4.68
2018-05-19T16:03:19.800Z,5.12
2018-05-19T16:05:45.865Z,5.57
2018-05-19T16:08:12.834Z,5.12
2018-05-19T16:10:39.648Z,4.12
2018-05-19T16:13:05.839Z,5.35
2018-05-19T16:15:32.640Z,5.18
2018-05-19T16:17:58.724Z,5.18
2018-05-19T16:20:25.690Z,4.73
2018-05-19T16:22:52.479Z,5.15
2018-05-19T16:25:19.268Z,5.55
2018-05-19T16:27:46.376Z,6.72
2018-05-19T16:30:12.490Z,4.10
2018-05-19T16:32:38.600Z,4.60
2018-05-19T16:35:04.617Z,5.93
2018-05-19T16:37:30.703Z,5.43
2018-05-19T16:39:56.774Z,5.53
2018-05-19T16:42:22.879Z,5.22
2018-05-19T16:44:48.970Z,5.00
2018-05-19T16:47:15.051Z,5.90
2018-05-19T16:49:41.159Z,5.10
2018-05-19T16:52:07.277Z,5.25
2018-05-19T16:54:37.067Z,4.80
2018-05-19T16:57:03.122Z,5.20
2018-05-19T16:59:29.244Z,5.50
2018-05-19T17:01:56.061Z,5.67
2018-05-19T17:04:22.105Z,5.57
2018-05-19T17:06:48.157Z,5.90
2018-05-19T17:09:14.951Z,5.30
2018-05-19T17:11:40.999Z,4.97
2018-05-19T17:14:07.044Z,5.60
2018-05-19T17:16:33.092Z,9.33
2018-05-19T17:18:59.162Z,5.20
2018-05-19T17:21:25.194Z,6.00
2018-05-19T17:23:51.230Z,6.17
2018-05-19T17:26:17.258Z,6.50
2018-05-19T17:28:43.375Z,7.75
2018-05-19T17:31:09.431Z,7.37
2018-05-19T17:33:35.508Z,8.07
2018-05-19T17:36:02.352Z,8.50
2018-05-19T17:38:29.251Z,7.90
2018-05-19T17:40:55.320Z,8.00
2018-05-19T17:43:21.375Z,9.40
2018-05-19T17:45:47.843Z,8.83
2018-05-19T17:48:13.862Z,10.05
2018-05-19T17:50:40.072Z,10.83
2018-05-19T17:53:06.118Z,10.27
2018-05-19T17:55:32.166Z,11.73
2018-05-19T17:57:58.242Z,19.10
2018-05-19T18:00:24.304Z,10.53
2018-05-19T18:02:50.357Z,9.40
2018-05-19T18:05:16.470Z,9.82
2018-05-19T18:07:42.580Z,9.67
2018-05-19T18:10:08.606Z,10.70
2018-05-19T18:12:34.637Z,10.32
2018-05-19T18:15:00.686Z,9.70
2018-05-19T18:17:26.795Z,8.90
2018-05-19T18:19:52.887Z,10.03
2018-05-19T18:22:19.003Z,10.23
2018-05-19T18:24:45.365Z,10.07
2018-05-19T18:27:11.500Z,9.90
2018-05-19T18:29:37.597Z,8.83
2018-05-19T18:32:03.606Z,9.87
2018-05-19T18:34:29.657Z,8.30
2018-05-19T18:36:55.665Z,9.37
2018-05-19T18:39:21.714Z,9.23
2018-05-19T18:41:47.759Z,9.03
2018-05-19T18:49:06.576Z,9.17
2018-05-19T18:51:32.635Z,10.20
2018-05-19T18:53:58.713Z,11.45
2018-05-19T18:56:24.782Z,14.23
2018-05-19T18:58:51.017Z,13.57
2018-05-19T19:01:17.341Z,11.27
2018-05-19T19:03:44.201Z,10.10
2018-05-19T19:06:11.069Z,9.70
2018-05-19T19:08:37.195Z,9.43
2018-05-19T19:11:03.999Z,9.47
2018-05-19T19:13:30.260Z,10.20
2018-05-19T19:15:56.336Z,10.40
2018-05-19T19:18:22.483Z,10.00
2018-05-19T19:20:48.531Z,10.93
2018-05-19T19:23:14.598Z,11.03
2018-05-19T19:25:40.661Z,10.77
2018-05-19T19:28:06.769Z,10.37
2018-05-19T19:32:58.856Z,11.10
2018-05-19T19:35:24.954Z,11.85
2018-05-19T19:37:51.034Z,11.98
2018-05-19T19:40:17.201Z,12.02
2018-05-19T19:42:43.366Z,11.43
2018-05-19T19:45:09.439Z,11.80
2018-05-19T19:47:35.926Z,12.60
2018-05-19T19:50:02.118Z,12.27
2018-05-19T19:52:28.126Z,11.60
2018-05-19T19:54:55.009Z,12.03
2018-05-19T19:57:21.005Z,11.38
2018-05-19T19:59:47.806Z,11.50
2018-05-19T20:02:13.864Z,11.80
2018-05-19T20:04:39.952Z,11.10
2018-05-19T20:07:06.419Z,10.90
2018-05-19T20:09:32.463Z,10.82
2018-05-19T20:11:58.533Z,13.88
2018-05-19T20:14:24.605Z,10.50
2018-05-19T20:16:50.716Z,10.40
2018-05-19T20:19:16.797Z,10.05
2018-05-19T20:21:43.620Z,10.20
2018-05-19T20:24:09.706Z,10.00
2018-05-19T20:26:36.024Z,8.90
2018-05-19T20:29:03.248Z,9.80
2018-05-19T20:31:29.306Z,9.70
2018-05-19T20:33:55.410Z,10.55
2018-05-19T20:36:21.479Z,9.70
2018-05-19T20:38:47.535Z,9.00
2018-05-19T20:41:13.635Z,8.73
2018-05-19T20:43:41.018Z,8.65
2018-05-19T20:46:07.082Z,8.83
2018-05-19T20:48:33.151Z,8.20
2018-05-19T20:50:59.206Z,13.30
2018-05-19T20:53:25.238Z,12.98
2018-05-19T20:55:51.272Z,9.57
2018-05-19T20:58:17.498Z,9.00
2018-05-19T21:00:44.275Z,8.60
2018-05-19T21:03:10.331Z,8.40
2018-05-19T21:05:37.160Z,11.20
2018-05-19T21:08:03.210Z,9.70
2018-05-19T21:10:29.459Z,11.45
2018-05-19T21:12:55.538Z,7.62
2018-05-19T21:15:21.595Z,8.00
2018-05-19T21:17:47.646Z,7.35
2018-05-19T21:20:13.803Z,7.50
2018-05-19T21:22:39.857Z,9.65
2018-05-19T21:25:05.944Z,7.70
2018-05-19T21:27:32.055Z,6.82
2018-05-19T21:29:58.114Z,6.60
2018-05-19T21:32:24.393Z,7.35
2018-05-19T21:34:50.488Z,12.07
2018-05-19T21:37:16.549Z,7.05
2018-05-19T21:39:42.619Z,6.55
2018-05-19T21:42:08.738Z,6.60
2018-05-19T21:44:35.538Z,6.82
2018-05-19T21:47:01.590Z,6.18
2018-05-19T21:49:27.713Z,5.20
2018-05-19T21:51:53.775Z,5.65
2018-05-19T21:54:19.802Z,5.53
2018-05-19T21:56:45.849Z,5.50
2018-05-19T21:59:11.923Z,5.53
2018-05-19T22:01:37.971Z,5.57
2018-05-19T22:04:04.015Z,5.45
2018-05-19T22:06:30.034Z,5.65
2018-05-19T22:08:56.937Z,5.57
2018-05-19T22:11:23.642Z,6.03
2018-05-19T22:13:50.458Z,5.60
2018-05-19T22:16:16.531Z,5.53
2018-05-19T22:18:43.348Z,6.00
2018-05-19T22:21:09.443Z,5.40
2018-05-19T22:23:35.539Z,5.57
2018-05-19T22:26:02.313Z,5.37
2018-05-19T22:28:29.156Z,5.40
2018-05-19T22:30:55.191Z,5.47
2018-05-19T22:33:21.278Z,5.45
2018-05-19T22:35:47.335Z,5.85
2018-05-19T22:38:13.404Z,6.22
2018-05-19T22:40:39.483Z,5.72
2018-05-19T22:43:05.554Z,6.43
2018-05-19T22:45:31.625Z,7.10
2018-05-19T22:47:57.674Z,5.27
2018-05-19T22:50:24.465Z,5.43
2018-05-19T22:52:50.517Z,5.10
2018-05-19T22:55:16.600Z,5.40
2018-05-19T22:57:43.411Z,5.05
2018-05-19T23:00:09.458Z,5.10
2018-05-19T23:02:35.521Z,7.10
2018-05-19T23:05:02.293Z,5.70
2018-05-19T23:07:29.063Z,4.80
2018-05-19T23:09:55.152Z,4.90
2018-05-19T23:12:21.205Z,4.83
2018-05-19T23:14:47.283Z,4.70
2018-05-19T23:17:13.331Z,5.97
2018-05-19T23:19:39.425Z,5.30
2018-05-19T23:22:06.201Z,5.30
2018-05-19T23:24:32.261Z,4.72
2018-05-19T23:26:58.371Z,4.80
2018-05-19T23:29:25.257Z,5.37
2018-05-19T23:31:51.299Z,5.25
2018-05-19T23:34:17.361Z,4.50
2018-05-19T23:36:43.458Z,5.00
2018-05-19T23:39:09.505Z,4.70
2018-05-19T23:41:35.574Z,4.85
2018-05-19T23:44:01.667Z,5.30
2018-05-19T23:46:27.719Z,9.17
2018-05-19T23:48:53.773Z,5.70
2018-05-19T23:51:19.793Z,4.33
2018-05-19T23:53:45.858Z,4.40
2018-05-19T23:56:11.889Z,4.80
2018-05-19T23:58:37.919Z,3.80
